sensor_id;sensor_type;location;lat;lon;timestamp;pressure;altitude;pressure_sealevel;temperature;humidity
44872;BME280;30602;51.060;17.226;2024-02-21T00:03:17;102214.70;;;5.80;100.00
44872;BME280;30602;51.060;17.226;2024-02-21T00:06:41;102209.45;;;5.77;100.00
44872;BME280;30602;51.060;17.226;2024-02-21T00:10:06;102212.27;;;5.74;100.00
44872;BME280;30602;51.060;17.226;2024-02-21T00:13:31;102213.07;;;5.72;100.00
44872;BME280;30602;51.060;17.226;2024-02-21T00:17:03;102209.14;;;5.71;100.00
44872;BME280;30602;51.060;17.226;2024-02-21T00:20:31;102209.37;;;5.71;100.00
44872;BME280;30602;51.060;17.226;2024-02-21T00:24:01;102207.27;;;5.72;100.00
44872;BME280;30602;51.060;17.226;2024-02-21T00:28:01;102207.70;;;5.80;100.00
44872;BME280;30602;51.060;17.226;2024-02-21T00:31:59;102204.32;;;5.84;100.00
44872;BME280;30602;51.060;17.226;2024-02-21T00:35:25;102199.39;;;5.83;100.00
44872;BME280;30602;51.060;17.226;2024-02-21T00:39:22;102196.21;;;5.80;100.00
44872;BME280;30602;51.060;17.226;2024-02-21T00:43:25;102195.22;;;5.80;100.00
44872;BME280;30602;51.060;17.226;2024-02-21T00:46:51;102186.24;;;5.77;100.00
44872;BME280;30602;51.060;17.226;2024-02-21T00:50:17;102184.43;;;5.73;100.00
44872;BME280;30602;51.060;17.226;2024-02-21T00:53:56;102181.77;;;5.69;100.00
44872;BME280;30602;51.060;17.226;2024-02-21T00:57:21;102181.13;;;5.70;100.00
44872;BME280;30602;51.060;17.226;2024-02-21T01:01:22;102175.87;;;5.69;100.00
44872;BME280;30602;51.060;17.226;2024-02-21T01:04:50;102171.02;;;5.64;100.00
44872;BME280;30602;51.060;17.226;2024-02-21T01:08:16;102169.37;;;5.64;100.00
44872;BME280;30602;51.060;17.226;2024-02-21T01:11:42;102165.91;;;5.63;100.00
44872;BME280;30602;51.060;17.226;2024-02-21T01:15:38;102162.24;;;5.71;100.00
44872;BME280;30602;51.060;17.226;2024-02-21T01:19:35;102155.17;;;5.81;100.00
44872;BME280;30602;51.060;17.226;2024-02-21T01:23:04;102155.20;;;5.80;100.00
44872;BME280;30602;51.060;17.226;2024-02-21T01:26:26;102152.27;;;5.74;100.00
44872;BME280;30602;51.060;17.226;2024-02-21T01:29:50;102147.25;;;5.71;100.00
44872;BME280;30602;51.060;17.226;2024-02-21T01:33:51;102146.81;;;5.72;100.00
44872;BME280;30602;51.060;17.226;2024-02-21T01:37:17;102143.09;;;5.71;100.00
44872;BME280;30602;51.060;17.226;2024-02-21T01:40:45;102139.02;;;5.69;100.00
44872;BME280;30602;51.060;17.226;2024-02-21T01:44:09;102136.19;;;5.70;100.00
44872;BME280;30602;51.060;17.226;2024-02-21T01:48:12;102129.94;;;5.67;100.00
44872;BME280;30602;51.060;17.226;2024-02-21T01:52:09;102131.32;;;5.71;100.00
44872;BME280;30602;51.060;17.226;2024-02-21T01:55:48;102128.75;;;5.72;100.00
44872;BME280;30602;51.060;17.226;2024-02-21T01:59:15;102124.95;;;5.74;100.00
44872;BME280;30602;51.060;17.226;2024-02-21T02:02:41;102120.22;;;5.80;100.00
44872;BME280;30602;51.060;17.226;2024-02-21T02:06:07;102118.14;;;5.88;100.00
44872;BME280;30602;51.060;17.226;2024-02-21T02:09:30;102114.48;;;5.96;100.00
44872;BME280;30602;51.060;17.226;2024-02-21T02:12:56;102107.47;;;5.95;100.00
44872;BME280;30602;51.060;17.226;2024-02-21T02:16:22;102106.60;;;5.91;100.00
44872;BME280;30602;51.060;17.226;2024-02-21T02:20:18;102100.20;;;5.88;100.00
44872;BME280;30602;51.060;17.226;2024-02-21T02:23:45;102088.88;;;5.86;100.00
44872;BME280;30602;51.060;17.226;2024-02-21T02:27:12;102089.19;;;5.82;100.00
44872;BME280;30602;51.060;17.226;2024-02-21T02:30:41;102084.41;;;5.75;100.00
44872;BME280;30602;51.060;17.226;2024-02-21T02:34:07;102088.64;;;5.68;100.00
44872;BME280;30602;51.060;17.226;2024-02-21T02:37:34;102088.25;;;5.64;100.00
44872;BME280;30602;51.060;17.226;2024-02-21T02:41:00;102081.87;;;5.61;100.00
44872;BME280;30602;51.060;17.226;2024-02-21T02:44:28;102081.74;;;5.56;100.00
44872;BME280;30602;51.060;17.226;2024-02-21T02:48:26;102078.09;;;5.52;100.00
44872;BME280;30602;51.060;17.226;2024-02-21T02:51:52;102074.34;;;5.59;100.00
44872;BME280;30602;51.060;17.226;2024-02-21T02:55:16;102071.78;;;5.66;100.00
44872;BME280;30602;51.060;17.226;2024-02-21T02:58:45;102070.49;;;5.70;100.00
44872;BME280;30602;51.060;17.226;2024-02-21T03:02:51;102068.26;;;5.61;100.00
44872;BME280;30602;51.060;17.226;2024-02-21T03:06:22;102067.55;;;5.60;100.00
44872;BME280;30602;51.060;17.226;2024-02-21T03:10:25;102063.41;;;5.55;100.00
44872;BME280;30602;51.060;17.226;2024-02-21T03:13:54;102063.26;;;5.52;100.00
44872;BME280;30602;51.060;17.226;2024-02-21T03:17:20;102061.39;;;5.47;100.00
44872;BME280;30602;51.060;17.226;2024-02-21T03:21:14;102059.96;;;5.41;100.00
44872;BME280;30602;51.060;17.226;2024-02-21T03:24:35;102057.40;;;5.35;100.00
44872;BME280;30602;51.060;17.226;2024-02-21T03:27:56;102052.25;;;5.30;100.00
44872;BME280;30602;51.060;17.226;2024-02-21T03:31:20;102055.12;;;5.26;100.00
44872;BME280;30602;51.060;17.226;2024-02-21T03:34:43;102049.74;;;5.19;100.00
44872;BME280;30602;51.060;17.226;2024-02-21T03:38:06;102052.34;;;5.22;100.00
44872;BME280;30602;51.060;17.226;2024-02-21T03:41:29;102054.88;;;5.30;100.00
44872;BME280;30602;51.060;17.226;2024-02-21T03:44:52;102046.71;;;5.34;100.00
44872;BME280;30602;51.060;17.226;2024-02-21T03:48:15;102044.45;;;5.33;100.00
44872;BME280;30602;51.060;17.226;2024-02-21T03:51:39;102043.83;;;5.30;100.00
44872;BME280;30602;51.060;17.226;2024-02-21T03:55:00;102038.59;;;5.23;100.00
44872;BME280;30602;51.060;17.226;2024-02-21T03:58:23;102036.12;;;5.22;100.00
44872;BME280;30602;51.060;17.226;2024-02-21T04:01:47;102037.82;;;5.19;100.00
44872;BME280;30602;51.060;17.226;2024-02-21T04:05:16;102040.66;;;5.16;100.00
44872;BME280;30602;51.060;17.226;2024-02-21T04:08:43;102037.63;;;5.16;100.00
44872;BME280;30602;51.060;17.226;2024-02-21T04:12:08;102036.42;;;5.16;100.00
44872;BME280;30602;51.060;17.226;2024-02-21T04:15:30;102033.98;;;5.13;100.00
44872;BME280;30602;51.060;17.226;2024-02-21T04:18:56;102028.93;;;5.11;100.00
44872;BME280;30602;51.060;17.226;2024-02-21T04:22:24;102022.05;;;5.06;100.00
44872;BME280;30602;51.060;17.226;2024-02-21T04:26:18;102020.87;;;5.03;100.00
44872;BME280;30602;51.060;17.226;2024-02-21T04:29:40;102013.63;;;5.12;100.00
44872;BME280;30602;51.060;17.226;2024-02-21T04:33:02;102012.45;;;5.21;100.00
44872;BME280;30602;51.060;17.226;2024-02-21T04:36:28;102012.42;;;5.26;100.00
44872;BME280;30602;51.060;17.226;2024-02-21T04:39:51;102006.98;;;5.27;100.00
44872;BME280;30602;51.060;17.226;2024-02-21T04:43:12;102004.55;;;5.24;100.00
44872;BME280;30602;51.060;17.226;2024-02-21T04:46:34;102003.05;;;5.13;100.00
44872;BME280;30602;51.060;17.226;2024-02-21T04:49:56;102002.66;;;5.11;100.00
44872;BME280;30602;51.060;17.226;2024-02-21T04:53:21;102001.55;;;5.09;100.00
44872;BME280;30602;51.060;17.226;2024-02-21T04:57:17;101994.27;;;5.08;100.00
44872;BME280;30602;51.060;17.226;2024-02-21T05:00:38;101991.55;;;5.05;100.00
44872;BME280;30602;51.060;17.226;2024-02-21T05:04:00;101988.21;;;4.99;100.00
44872;BME280;30602;51.060;17.226;2024-02-21T05:07:55;101989.09;;;4.98;100.00
44872;BME280;30602;51.060;17.226;2024-02-21T05:11:17;101987.71;;;4.96;100.00
44872;BME280;30602;51.060;17.226;2024-02-21T05:14:37;101987.34;;;4.96;100.00
44872;BME280;30602;51.060;17.226;2024-02-21T05:18:28;101985.93;;;4.99;100.00
44872;BME280;30602;51.060;17.226;2024-02-21T05:21:50;101976.69;;;5.14;100.00
44872;BME280;30602;51.060;17.226;2024-02-21T05:25:12;101974.33;;;5.28;100.00
44872;BME280;30602;51.060;17.226;2024-02-21T05:28:35;101976.31;;;5.33;100.00
44872;BME280;30602;51.060;17.226;2024-02-21T05:32:28;101978.89;;;5.27;100.00
44872;BME280;30602;51.060;17.226;2024-02-21T05:35:49;101975.63;;;5.22;100.00
44872;BME280;30602;51.060;17.226;2024-02-21T05:39:10;101975.78;;;5.21;100.00
44872;BME280;30602;51.060;17.226;2024-02-21T05:42:34;101973.09;;;5.20;100.00
44872;BME280;30602;51.060;17.226;2024-02-21T05:45:55;101974.19;;;5.24;100.00
44872;BME280;30602;51.060;17.226;2024-02-21T05:49:17;101958.55;;;5.20;100.00
44872;BME280;30602;51.060;17.226;2024-02-21T05:52:38;101960.72;;;5.20;100.00
44872;BME280;30602;51.060;17.226;2024-02-21T05:56:33;101965.96;;;5.20;100.00
44872;BME280;30602;51.060;17.226;2024-02-21T05:59:53;101959.48;;;5.20;100.00
44872;BME280;30602;51.060;17.226;2024-02-21T06:03:15;101960.67;;;5.20;100.00
44872;BME280;30602;51.060;17.226;2024-02-21T06:06:36;101958.88;;;5.21;100.00
44872;BME280;30602;51.060;17.226;2024-02-21T06:10:01;101958.41;;;5.33;100.00
44872;BME280;30602;51.060;17.226;2024-02-21T06:13:24;101960.91;;;5.41;100.00
44872;BME280;30602;51.060;17.226;2024-02-21T06:16:54;101947.63;;;5.35;100.00
44872;BME280;30602;51.060;17.226;2024-02-21T06:20:16;101958.75;;;5.43;100.00
44872;BME280;30602;51.060;17.226;2024-02-21T06:23:38;101962.57;;;5.44;100.00
44872;BME280;30602;51.060;17.226;2024-02-21T06:27:00;101966.69;;;5.42;100.00
44872;BME280;30602;51.060;17.226;2024-02-21T06:30:19;101961.78;;;5.45;100.00
44872;BME280;30602;51.060;17.226;2024-02-21T06:33:41;101950.09;;;5.39;100.00
44872;BME280;30602;51.060;17.226;2024-02-21T06:37:04;101959.00;;;5.43;100.00
44872;BME280;30602;51.060;17.226;2024-02-21T06:40:30;101955.91;;;5.45;100.00
44872;BME280;30602;51.060;17.226;2024-02-21T06:43:58;101954.32;;;5.44;100.00
44872;BME280;30602;51.060;17.226;2024-02-21T06:47:20;101953.41;;;5.41;100.00
44872;BME280;30602;51.060;17.226;2024-02-21T06:50:39;101962.30;;;5.41;100.00
44872;BME280;30602;51.060;17.226;2024-02-21T06:54:02;101963.30;;;5.45;100.00
44872;BME280;30602;51.060;17.226;2024-02-21T06:57:20;101959.88;;;5.46;100.00
44872;BME280;30602;51.060;17.226;2024-02-21T07:00:43;101960.54;;;5.52;100.00
44872;BME280;30602;51.060;17.226;2024-02-21T07:04:04;101957.34;;;5.62;100.00
44872;BME280;30602;51.060;17.226;2024-02-21T07:07:26;101955.93;;;5.71;100.00
44872;BME280;30602;51.060;17.226;2024-02-21T07:10:50;101948.82;;;5.68;100.00
44872;BME280;30602;51.060;17.226;2024-02-21T07:14:09;101948.04;;;5.71;100.00
44872;BME280;30602;51.060;17.226;2024-02-21T07:17:31;101947.04;;;5.72;100.00
44872;BME280;30602;51.060;17.226;2024-02-21T07:20:54;101943.54;;;5.73;100.00
44872;BME280;30602;51.060;17.226;2024-02-21T07:24:17;101943.70;;;5.80;100.00
44872;BME280;30602;51.060;17.226;2024-02-21T07:27:38;101937.31;;;5.82;100.00
44872;BME280;30602;51.060;17.226;2024-02-21T07:30:59;101933.73;;;5.89;100.00
44872;BME280;30602;51.060;17.226;2024-02-21T07:34:22;101936.98;;;5.93;100.00
44872;BME280;30602;51.060;17.226;2024-02-21T07:37:43;101934.66;;;6.01;100.00
44872;BME280;30602;51.060;17.226;2024-02-21T07:41:07;101934.56;;;6.07;100.00
44872;BME280;30602;51.060;17.226;2024-02-21T07:44:27;101930.89;;;6.15;100.00
44872;BME280;30602;51.060;17.226;2024-02-21T07:47:51;101927.61;;;6.25;100.00
44872;BME280;30602;51.060;17.226;2024-02-21T07:51:13;101928.58;;;6.44;100.00
44872;BME280;30602;51.060;17.226;2024-02-21T07:54:38;101921.99;;;6.54;100.00
44872;BME280;30602;51.060;17.226;2024-02-21T07:58:00;101921.44;;;6.56;100.00
44872;BME280;30602;51.060;17.226;2024-02-21T08:01:22;101920.78;;;6.56;100.00
44872;BME280;30602;51.060;17.226;2024-02-21T08:04:48;101917.23;;;6.60;100.00
44872;BME280;30602;51.060;17.226;2024-02-21T08:08:07;101910.97;;;6.60;100.00
44872;BME280;30602;51.060;17.226;2024-02-21T08:11:31;101902.13;;;6.51;100.00
44872;BME280;30602;51.060;17.226;2024-02-21T08:14:53;101904.56;;;6.51;100.00
44872;BME280;30602;51.060;17.226;2024-02-21T08:18:14;101907.15;;;6.51;100.00
44872;BME280;30602;51.060;17.226;2024-02-21T08:21:45;101900.16;;;6.50;100.00
44872;BME280;30602;51.060;17.226;2024-02-21T08:25:07;101896.77;;;6.49;100.00
44872;BME280;30602;51.060;17.226;2024-02-21T08:28:27;101892.54;;;6.48;100.00
44872;BME280;30602;51.060;17.226;2024-02-21T08:31:47;101889.26;;;6.50;100.00
44872;BME280;30602;51.060;17.226;2024-02-21T08:35:09;101883.20;;;6.59;100.00
44872;BME280;30602;51.060;17.226;2024-02-21T08:38:30;101886.63;;;6.75;100.00
44872;BME280;30602;51.060;17.226;2024-02-21T08:41:55;101887.11;;;6.84;100.00
44872;BME280;30602;51.060;17.226;2024-02-21T08:45:15;101887.76;;;6.87;100.00
44872;BME280;30602;51.060;17.226;2024-02-21T08:48:33;101884.84;;;6.87;100.00
44872;BME280;30602;51.060;17.226;2024-02-21T08:51:58;101881.29;;;6.91;100.00
44872;BME280;30602;51.060;17.226;2024-02-21T08:55:21;101878.23;;;6.97;100.00
44872;BME280;30602;51.060;17.226;2024-02-21T08:58:46;101875.75;;;6.94;100.00
44872;BME280;30602;51.060;17.226;2024-02-21T09:02:09;101873.27;;;6.93;100.00
44872;BME280;30602;51.060;17.226;2024-02-21T09:05:37;101872.27;;;6.93;100.00
44872;BME280;30602;51.060;17.226;2024-02-21T09:08:58;101875.73;;;6.96;100.00
44872;BME280;30602;51.060;17.226;2024-02-21T09:12:53;101875.43;;;7.04;100.00
44872;BME280;30602;51.060;17.226;2024-02-21T09:16:15;101874.55;;;7.10;100.00
44872;BME280;30602;51.060;17.226;2024-02-21T09:19:39;101878.90;;;7.27;100.00
44872;BME280;30602;51.060;17.226;2024-02-21T09:22:59;101875.52;;;7.42;100.00
44872;BME280;30602;51.060;17.226;2024-02-21T09:26:27;101872.27;;;7.50;100.00
44872;BME280;30602;51.060;17.226;2024-02-21T09:29:53;101872.66;;;7.55;100.00
44872;BME280;30602;51.060;17.226;2024-02-21T09:33:17;101868.05;;;7.52;100.00
44872;BME280;30602;51.060;17.226;2024-02-21T09:36:42;101866.80;;;7.44;100.00
44872;BME280;30602;51.060;17.226;2024-02-21T09:40:02;101870.95;;;7.40;100.00
44872;BME280;30602;51.060;17.226;2024-02-21T09:43:24;101870.31;;;7.33;100.00
44872;BME280;30602;51.060;17.226;2024-02-21T09:46:55;101869.63;;;7.33;100.00
44872;BME280;30602;51.060;17.226;2024-02-21T09:50:50;101871.30;;;7.35;100.00
44872;BME280;30602;51.060;17.226;2024-02-21T09:54:10;101869.81;;;7.37;100.00
44872;BME280;30602;51.060;17.226;2024-02-21T09:57:34;101869.40;;;7.39;100.00
44872;BME280;30602;51.060;17.226;2024-02-21T10:00:56;101867.18;;;7.44;100.00
44872;BME280;30602;51.060;17.226;2024-02-21T10:04:20;101863.03;;;7.54;100.00
44872;BME280;30602;51.060;17.226;2024-02-21T10:07:40;101854.87;;;7.66;100.00
44872;BME280;30602;51.060;17.226;2024-02-21T10:11:00;101852.25;;;7.69;100.00
44872;BME280;30602;51.060;17.226;2024-02-21T10:14:22;101854.71;;;7.74;100.00
44872;BME280;30602;51.060;17.226;2024-02-21T10:18:18;101851.14;;;7.74;100.00
44872;BME280;30602;51.060;17.226;2024-02-21T10:21:38;101851.42;;;7.67;100.00
44872;BME280;30602;51.060;17.226;2024-02-21T10:28:28;101848.38;;;7.67;100.00
44872;BME280;30602;51.060;17.226;2024-02-21T10:35:32;101858.30;;;7.55;100.00
44872;BME280;30602;51.060;17.226;2024-02-21T10:38:55;101853.75;;;7.51;100.00
44872;BME280;30602;51.060;17.226;2024-02-21T10:42:22;101851.89;;;7.48;100.00
44872;BME280;30602;51.060;17.226;2024-02-21T10:45:46;101852.13;;;7.45;100.00
44872;BME280;30602;51.060;17.226;2024-02-21T10:49:23;101851.32;;;7.56;100.00
44872;BME280;30602;51.060;17.226;2024-02-21T10:56:25;101832.63;;;7.72;100.00
44872;BME280;30602;51.060;17.226;2024-02-21T10:59:48;101828.47;;;7.77;100.00
44872;BME280;30602;51.060;17.226;2024-02-21T11:03:10;101815.92;;;7.81;100.00
44872;BME280;30602;51.060;17.226;2024-02-21T11:06:32;101812.71;;;7.79;100.00
44872;BME280;30602;51.060;17.226;2024-02-21T11:09:52;101801.05;;;7.82;100.00
44872;BME280;30602;51.060;17.226;2024-02-21T11:13:18;101793.20;;;7.88;100.00
44872;BME280;30602;51.060;17.226;2024-02-21T11:16:41;101793.52;;;7.88;100.00
44872;BME280;30602;51.060;17.226;2024-02-21T11:20:10;101789.95;;;7.82;100.00
44872;BME280;30602;51.060;17.226;2024-02-21T11:23:32;101792.66;;;7.76;100.00
44872;BME280;30602;51.060;17.226;2024-02-21T11:26:55;101793.77;;;7.73;100.00
44872;BME280;30602;51.060;17.226;2024-02-21T11:30:29;101788.30;;;7.75;100.00
44872;BME280;30602;51.060;17.226;2024-02-21T11:34:02;101777.94;;;7.80;100.00
44872;BME280;30602;51.060;17.226;2024-02-21T11:37:25;101768.59;;;7.91;100.00
44872;BME280;30602;51.060;17.226;2024-02-21T11:40:48;101770.81;;;8.04;100.00
44872;BME280;30602;51.060;17.226;2024-02-21T11:44:12;101761.95;;;8.12;100.00
44872;BME280;30602;51.060;17.226;2024-02-21T11:47:31;101741.05;;;8.12;100.00
44872;BME280;30602;51.060;17.226;2024-02-21T11:50:55;101752.09;;;8.19;100.00
44872;BME280;30602;51.060;17.226;2024-02-21T11:54:17;101748.17;;;8.18;100.00
44872;BME280;30602;51.060;17.226;2024-02-21T11:57:42;101744.02;;;8.17;100.00
44872;BME280;30602;51.060;17.226;2024-02-21T12:01:08;101747.69;;;8.14;100.00
44872;BME280;30602;51.060;17.226;2024-02-21T12:04:27;101740.21;;;8.14;100.00
44872;BME280;30602;51.060;17.226;2024-02-21T12:08:24;101742.77;;;8.15;100.00
44872;BME280;30602;51.060;17.226;2024-02-21T12:11:45;101734.68;;;8.13;100.00
44872;BME280;30602;51.060;17.226;2024-02-21T12:15:25;101727.16;;;8.13;100.00
44872;BME280;30602;51.060;17.226;2024-02-21T12:18:52;101720.46;;;8.16;100.00
44872;BME280;30602;51.060;17.226;2024-02-21T12:22:19;101722.11;;;8.28;100.00
44872;BME280;30602;51.060;17.226;2024-02-21T12:25:46;101712.52;;;8.39;100.00
44872;BME280;30602;51.060;17.226;2024-02-21T12:29:12;101699.20;;;8.44;100.00
44872;BME280;30602;51.060;17.226;2024-02-21T12:32:40;101693.30;;;8.45;100.00
44872;BME280;30602;51.060;17.226;2024-02-21T12:36:07;101692.37;;;8.47;100.00
44872;BME280;30602;51.060;17.226;2024-02-21T12:39:33;101691.23;;;8.46;100.00
44872;BME280;30602;51.060;17.226;2024-02-21T12:43:01;101678.21;;;8.51;100.00
44872;BME280;30602;51.060;17.226;2024-02-21T12:46:28;101666.13;;;8.59;100.00
44872;BME280;30602;51.060;17.226;2024-02-21T12:49:51;101665.06;;;8.65;100.00
44872;BME280;30602;51.060;17.226;2024-02-21T12:53:21;101648.04;;;8.60;100.00
44872;BME280;30602;51.060;17.226;2024-02-21T12:56:44;101650.05;;;8.68;100.00
44872;BME280;30602;51.060;17.226;2024-02-21T13:00:07;101644.83;;;8.76;100.00
44872;BME280;30602;51.060;17.226;2024-02-21T13:03:43;101639.55;;;8.83;100.00
44872;BME280;30602;51.060;17.226;2024-02-21T13:07:04;101634.44;;;8.90;100.00
44872;BME280;30602;51.060;17.226;2024-02-21T13:10:32;101622.20;;;9.06;100.00
44872;BME280;30602;51.060;17.226;2024-02-21T13:13:58;101626.65;;;9.06;99.93
44872;BME280;30602;51.060;17.226;2024-02-21T13:17:24;101623.98;;;9.05;100.00
44872;BME280;30602;51.060;17.226;2024-02-21T13:20:54;101626.41;;;8.95;99.71
44872;BME280;30602;51.060;17.226;2024-02-21T13:24:23;101626.86;;;8.89;100.00
44872;BME280;30602;51.060;17.226;2024-02-21T13:27:50;101620.94;;;8.81;100.00
44872;BME280;30602;51.060;17.226;2024-02-21T13:31:17;101619.16;;;8.74;100.00
44872;BME280;30602;51.060;17.226;2024-02-21T13:34:44;101615.55;;;8.71;100.00
44872;BME280;30602;51.060;17.226;2024-02-21T13:38:14;101606.27;;;8.70;100.00
44872;BME280;30602;51.060;17.226;2024-02-21T13:41:42;101598.05;;;8.68;100.00
44872;BME280;30602;51.060;17.226;2024-02-21T13:45:05;101588.15;;;8.82;100.00
44872;BME280;30602;51.060;17.226;2024-02-21T13:48:31;101591.88;;;9.01;99.53
44872;BME280;30602;51.060;17.226;2024-02-21T13:51:56;101579.22;;;9.10;98.74
44872;BME280;30602;51.060;17.226;2024-02-21T13:55:23;101571.96;;;9.20;97.67
44872;BME280;30602;51.060;17.226;2024-02-21T13:58:51;101571.73;;;9.20;97.43
44872;BME280;30602;51.060;17.226;2024-02-21T14:17:42;101559.22;;;9.08;98.98
44872;BME280;30602;51.060;17.226;2024-02-21T14:21:11;101552.34;;;9.07;99.43
44872;BME280;30602;51.060;17.226;2024-02-21T14:24:36;101543.83;;;9.03;99.69
44872;BME280;30602;51.060;17.226;2024-02-21T14:27:59;101541.95;;;9.17;99.23
44872;BME280;30602;51.060;17.226;2024-02-21T14:31:34;101541.22;;;9.32;98.48
44872;BME280;30602;51.060;17.226;2024-02-21T14:35:03;101550.91;;;9.48;98.34
44872;BME280;30602;51.060;17.226;2024-02-21T14:38:29;101550.25;;;9.52;97.75
44872;BME280;30602;51.060;17.226;2024-02-21T14:41:58;101544.86;;;9.45;97.34
44872;BME280;30602;51.060;17.226;2024-02-21T14:45:30;101543.90;;;9.39;96.94
44872;BME280;30602;51.060;17.226;2024-02-21T14:49:01;101538.37;;;9.32;97.45
44872;BME280;30602;51.060;17.226;2024-02-21T14:52:27;101533.44;;;9.29;97.85
44872;BME280;30602;51.060;17.226;2024-02-21T14:55:54;101525.00;;;9.19;97.66
44872;BME280;30602;51.060;17.226;2024-02-21T14:59:19;101527.63;;;9.17;98.60
44872;BME280;30602;51.060;17.226;2024-02-21T15:02:42;101523.12;;;9.12;98.14
44872;BME280;30602;51.060;17.226;2024-02-21T15:06:12;101527.03;;;9.08;97.52
44872;BME280;30602;51.060;17.226;2024-02-21T15:09:38;101523.02;;;9.15;98.78
44872;BME280;30602;51.060;17.226;2024-02-21T15:13:04;101518.52;;;9.22;98.67
44872;BME280;30602;51.060;17.226;2024-02-21T15:16:29;101515.59;;;9.34;98.05
44872;BME280;30602;51.060;17.226;2024-02-21T15:19:55;101518.18;;;9.41;97.32
44872;BME280;30602;51.060;17.226;2024-02-21T15:23:24;101518.80;;;9.41;97.18
44872;BME280;30602;51.060;17.226;2024-02-21T15:26:46;101516.49;;;9.32;97.33
44872;BME280;30602;51.060;17.226;2024-02-21T15:30:13;101510.29;;;9.21;97.91
44872;BME280;30602;51.060;17.226;2024-02-21T15:33:39;101506.79;;;9.09;98.14
44872;BME280;30602;51.060;17.226;2024-02-21T15:37:08;101500.59;;;9.02;98.88
44872;BME280;30602;51.060;17.226;2024-02-21T15:40:38;101496.80;;;8.96;99.51
44872;BME280;30602;51.060;17.226;2024-02-21T15:44:09;101495.52;;;8.89;100.00
44872;BME280;30602;51.060;17.226;2024-02-21T15:47:36;101491.66;;;8.79;100.00
44872;BME280;30602;51.060;17.226;2024-02-21T15:51:06;101494.47;;;8.75;100.00
44872;BME280;30602;51.060;17.226;2024-02-21T15:54:30;101492.02;;;8.79;100.00
44872;BME280;30602;51.060;17.226;2024-02-21T15:57:57;101487.63;;;8.86;100.00
44872;BME280;30602;51.060;17.226;2024-02-21T16:01:53;101486.27;;;8.89;100.00
44872;BME280;30602;51.060;17.226;2024-02-21T16:05:18;101453.13;;;8.76;100.00
44872;BME280;30602;51.060;17.226;2024-02-21T16:08:50;101478.45;;;8.77;100.00
44872;BME280;30602;51.060;17.226;2024-02-21T16:12:19;101477.21;;;8.68;100.00
44872;BME280;30602;51.060;17.226;2024-02-21T16:15:49;101474.35;;;8.71;100.00
44872;BME280;30602;51.060;17.226;2024-02-21T16:19:16;101478.02;;;8.70;100.00
44872;BME280;30602;51.060;17.226;2024-02-21T16:22:43;101473.78;;;8.65;99.90
44872;BME280;30602;51.060;17.226;2024-02-21T16:26:08;101474.29;;;8.59;99.39
44872;BME280;30602;51.060;17.226;2024-02-21T16:29:38;101473.22;;;8.51;99.12
44872;BME280;30602;51.060;17.226;2024-02-21T16:33:23;101462.41;;;8.41;98.68
44872;BME280;30602;51.060;17.226;2024-02-21T16:36:55;101484.65;;;8.58;98.62
44872;BME280;30602;51.060;17.226;2024-02-21T16:40:25;101482.31;;;8.73;97.74
44872;BME280;30602;51.060;17.226;2024-02-21T16:43:49;101478.61;;;8.89;96.99
44872;BME280;30602;51.060;17.226;2024-02-21T16:47:16;101478.52;;;8.96;95.89
44872;BME280;30602;51.060;17.226;2024-02-21T16:50:47;101479.70;;;8.97;95.60
44872;BME280;30602;51.060;17.226;2024-02-21T16:54:10;101474.45;;;8.85;96.08
44872;BME280;30602;51.060;17.226;2024-02-21T16:57:46;101472.96;;;8.75;96.31
44872;BME280;30602;51.060;17.226;2024-02-21T17:01:11;101473.00;;;8.64;96.92
44872;BME280;30602;51.060;17.226;2024-02-21T17:05:09;101462.06;;;8.53;97.27
44872;BME280;30602;51.060;17.226;2024-02-21T17:08:33;101457.37;;;8.47;98.04
44872;BME280;30602;51.060;17.226;2024-02-21T17:12:00;101450.28;;;8.40;98.44
44872;BME280;30602;51.060;17.226;2024-02-21T17:15:27;101444.76;;;8.27;98.73
44872;BME280;30602;51.060;17.226;2024-02-21T17:18:54;101440.77;;;8.12;98.93
44872;BME280;30602;51.060;17.226;2024-02-21T17:22:21;101442.48;;;8.08;99.44
44872;BME280;30602;51.060;17.226;2024-02-21T17:25:49;101439.20;;;7.99;99.25
44872;BME280;30602;51.060;17.226;2024-02-21T17:29:17;101434.09;;;7.87;99.56
44872;BME280;30602;51.060;17.226;2024-02-21T17:32:46;101424.58;;;7.81;99.97
44872;BME280;30602;51.060;17.226;2024-02-21T17:36:12;101420.01;;;7.67;100.00
44872;BME280;30602;51.060;17.226;2024-02-21T17:39:40;101414.08;;;7.57;100.00
44872;BME280;30602;51.060;17.226;2024-02-21T17:43:06;101415.45;;;7.45;100.00
44872;BME280;30602;51.060;17.226;2024-02-21T17:46:44;101411.78;;;7.21;100.00
44872;BME280;30602;51.060;17.226;2024-02-21T17:50:10;101406.22;;;7.04;100.00
44872;BME280;30602;51.060;17.226;2024-02-21T17:53:37;101404.86;;;6.90;100.00
44872;BME280;30602;51.060;17.226;2024-02-21T17:57:08;101396.08;;;6.73;100.00
44872;BME280;30602;51.060;17.226;2024-02-21T18:00:32;101401.30;;;6.63;100.00
44872;BME280;30602;51.060;17.226;2024-02-21T18:04:01;101391.85;;;6.52;100.00
44872;BME280;30602;51.060;17.226;2024-02-21T18:07:36;101381.36;;;6.47;100.00
44872;BME280;30602;51.060;17.226;2024-02-21T18:11:08;101381.63;;;6.46;100.00
44872;BME280;30602;51.060;17.226;2024-02-21T18:14:37;101376.02;;;6.38;100.00
44872;BME280;30602;51.060;17.226;2024-02-21T18:18:06;101366.62;;;6.28;100.00
44872;BME280;30602;51.060;17.226;2024-02-21T18:21:32;101361.66;;;6.24;100.00